Nissho Maru — JD2650 — position and weather

sailwx.info

Track history (hours):
 
Tides and Currents Weather Stations Pressure Air Temp Water Temp Dewpoint Dewpoint Depression Visibility Wind Speed Wind Dir Waves Ship Positions

Nissho Maru

Last reported at 2017-Apr-29 18:03 UTC. Time now 2017-Apr-29 23:28 UTC.
Position N 34°33' E 134°46'.

Length 75 m.

Type: Cargo ship. MMSI: 431000572.

Date/timePositionNaut miles runAvg speedWind from/ knotsBaromVisibWave heightAir tempDewpointWater temp
2017-Apr-29 18:03N 34°33' E 134°46'112.1
2017-Apr-29 18:00N 34°33' E 134°46'612.1
2017-Apr-29 17:30N 34°35' E 134°53'611.5
2017-Apr-29 17:00N 34°38' E 134°59'611.4
2017-Apr-29 16:30N 34°34' E 135°05'2212.7
2017-Apr-29 14:47N 34°13' E 134°59'412.5
2017-Apr-29 14:30N 34°09' E 134°60'239 9.4
2017-Apr-28 13:08N 35°06' E 139°42'211.6
2017-Apr-28 12:57N 35°07' E 139°43'511.9
2017-Apr-28 12:31N 35°12' E 139°46'612.1
2017-Apr-28 12:01N 35°18' E 139°44'612.4
2017-Apr-28 11:31N 35°23' E 139°40'2 4.7
2017-Apr-28 11:01N 35°24' E 139°37'0 0.0
2017-Apr-28 10:30N 35°24' E 139°37'0 0.0
2017-Apr-28 10:00N 35°24' E 139°37'0 0.0
2017-Apr-28 09:30N 35°24' E 139°37'0 0.0
2017-Apr-28 09:00N 35°24' E 139°37'0 0.0
2017-Apr-28 08:30N 35°24' E 139°37'0 0.0
2017-Apr-28 07:57N 35°24' E 139°37'0 0.0
2017-Apr-28 07:30N 35°24' E 139°37'0 0.0
2017-Apr-28 07:00N 35°24' E 139°37'0 0.0
2017-Apr-28 06:30N 35°24' E 139°37'0 0.0
2017-Apr-28 06:00N 35°24' E 139°37'0 0.0
2017-Apr-28 05:30N 35°24' E 139°37'0 0.0
2017-Apr-28 05:00N 35°24' E 139°37'0 0.7
2017-Apr-28 04:30N 35°24' E 139°38'2 3.7
2017-Apr-28 04:00N 35°23' E 139°40'1 1.1
2017-Apr-28 03:25N 35°23' E 139°40'0 0.0
2017-Apr-28 02:58N 35°23' E 139°40'0 0.0
2017-Apr-28 02:28N 35°23' E 139°40'0 0.0
2017-Apr-28 01:58N 35°23' E 139°40'0 0.0
2017-Apr-28 01:28N 35°23' E 139°40'0 0.0
2017-Apr-28 00:55N 35°23' E 139°40'0 0.0
2017-Apr-28 00:28N 35°23' E 139°40'0 0.0
2017-Apr-27 23:58N 35°23' E 139°40'0 0.0
2017-Apr-27 23:28N 35°23' E 139°40'1 3.1
2017-Apr-27 23:00N 35°21' E 139°41'  
2017-Apr-22 23:28N 34°52' E 139°52'610.4
2017-Apr-22 22:55N 34°55' E 139°46'511.7
2017-Apr-22 22:30N 34°59' E 139°43'612.2
2017-Apr-22 22:00N 35°05' E 139°44'612.4
2017-Apr-22 21:30N 35°11' E 139°46'612.2
2017-Apr-22 21:00N 35°17' E 139°45'612.1
2017-Apr-22 20:30N 35°22' E 139°42'612.1
2017-Apr-22 20:00N 35°27' E 139°47'17 0.8
2017-Apr-21 23:36N 35°36' E 140°05'2 8.2
2017-Apr-21 23:22N 35°35' E 140°03'410.6
2017-Apr-21 23:00N 35°33' E 139°59'612.1
2017-Apr-21 22:30N 35°29' E 139°53'612.2
2017-Apr-21 22:00N 35°25' E 139°48'612.0
2017-Apr-21 21:30N 35°20' E 139°44'611.4
2017-Apr-21 21:00N 35°14' E 139°47'612.3
2017-Apr-21 20:30N 35°08' E 139°46'612.3
2017-Apr-21 20:00N 35°02' E 139°45'  
Track history (hours):
 
Tides and Currents Weather Stations Pressure Air Temp Water Temp Dewpoint Dewpoint Depression Visibility Wind Speed Wind Dir Waves Ship Positions

Nissho Maru

Last reported at 2017-Apr-29 18:03 UTC. Time now 2017-Apr-29 23:28 UTC.
Position N 34°33' E 134°46'.

Length 75 m.

Type: Cargo ship. MMSI: 431000572.

Date/timePositionNaut miles runAvg speedWind from/ knotsBaromVisibWave heightAir tempDewpointWater temp
2017-Apr-29 18:03N 34°33' E 134°46'112.1
2017-Apr-29 18:00N 34°33' E 134°46'612.1
2017-Apr-29 17:30N 34°35' E 134°53'611.5
2017-Apr-29 17:00N 34°38' E 134°59'611.4
2017-Apr-29 16:30N 34°34' E 135°05'2212.7
2017-Apr-29 14:47N 34°13' E 134°59'412.5
2017-Apr-29 14:30N 34°09' E 134°60'239 9.4
2017-Apr-28 13:08N 35°06' E 139°42'211.6
2017-Apr-28 12:57N 35°07' E 139°43'511.9
2017-Apr-28 12:31N 35°12' E 139°46'612.1
2017-Apr-28 12:01N 35°18' E 139°44'612.4
2017-Apr-28 11:31N 35°23' E 139°40'2 4.7
2017-Apr-28 11:01N 35°24' E 139°37'0 0.0
2017-Apr-28 10:30N 35°24' E 139°37'0 0.0
2017-Apr-28 10:00N 35°24' E 139°37'0 0.0
2017-Apr-28 09:30N 35°24' E 139°37'0 0.0
2017-Apr-28 09:00N 35°24' E 139°37'0 0.0
2017-Apr-28 08:30N 35°24' E 139°37'0 0.0
2017-Apr-28 07:57N 35°24' E 139°37'0 0.0
2017-Apr-28 07:30N 35°24' E 139°37'0 0.0
2017-Apr-28 07:00N 35°24' E 139°37'0 0.0
2017-Apr-28 06:30N 35°24' E 139°37'0 0.0
2017-Apr-28 06:00N 35°24' E 139°37'0 0.0
2017-Apr-28 05:30N 35°24' E 139°37'0 0.0
2017-Apr-28 05:00N 35°24' E 139°37'0 0.7
2017-Apr-28 04:30N 35°24' E 139°38'2 3.7
2017-Apr-28 04:00N 35°23' E 139°40'1 1.1
2017-Apr-28 03:25N 35°23' E 139°40'0 0.0
2017-Apr-28 02:58N 35°23' E 139°40'0 0.0
2017-Apr-28 02:28N 35°23' E 139°40'0 0.0
2017-Apr-28 01:58N 35°23' E 139°40'0 0.0
2017-Apr-28 01:28N 35°23' E 139°40'0 0.0
2017-Apr-28 00:55N 35°23' E 139°40'0 0.0
2017-Apr-28 00:28N 35°23' E 139°40'0 0.0
2017-Apr-27 23:58N 35°23' E 139°40'0 0.0
2017-Apr-27 23:28N 35°23' E 139°40'1 3.1
2017-Apr-27 23:00N 35°21' E 139°41'  
2017-Apr-22 23:28N 34°52' E 139°52'610.4
2017-Apr-22 22:55N 34°55' E 139°46'511.7
2017-Apr-22 22:30N 34°59' E 139°43'612.2
2017-Apr-22 22:00N 35°05' E 139°44'612.4
2017-Apr-22 21:30N 35°11' E 139°46'612.2
2017-Apr-22 21:00N 35°17' E 139°45'612.1
2017-Apr-22 20:30N 35°22' E 139°42'612.1
2017-Apr-22 20:00N 35°27' E 139°47'17 0.8
2017-Apr-21 23:36N 35°36' E 140°05'2 8.2
2017-Apr-21 23:22N 35°35' E 140°03'410.6
2017-Apr-21 23:00N 35°33' E 139°59'612.1
2017-Apr-21 22:30N 35°29' E 139°53'612.2
2017-Apr-21 22:00N 35°25' E 139°48'612.0
2017-Apr-21 21:30N 35°20' E 139°44'611.4
2017-Apr-21 21:00N 35°14' E 139°47'612.3
2017-Apr-21 20:30N 35°08' E 139°46'612.3
2017-Apr-21 20:00N 35°02' E 139°45'  

Dump ship's entire track history